Astur — CURM5 — position and weather

sailwx.info

Track history (hours):
 
Tides and Currents Weather Stations Pressure Air Temp Water Temp Dewpoint Dewpoint Depression Visibility Wind Speed Wind Dir Waves Ship Positions

Astur

Last reported at 2017-Dec-11 11:30 UTC. Time now 2017-Dec-14 08:24 UTC.
Position N 37°03' W 008°31'.

Length 21 m.

Type: Ship. MMSI: 263275000.

Date/timePositionNaut miles runAvg speedWind from/ knotsBaromVisibWave heightAir tempDewpointWater temp
2017-Dec-11 11:30N 37°03' W 008°31'5 8.5
2017-Dec-11 10:55N 37°08' W 008°32'0 0.8
2017-Dec-11 10:30N 37°08' W 008°32'0 0.0
2017-Dec-11 10:00N 37°08' W 008°32'0 0.0
2017-Dec-11 09:30N 37°08' W 008°32'0 0.0
2017-Dec-11 09:00N 37°08' W 008°32'0 0.0
2017-Dec-11 08:24N 37°08' W 008°32'0 0.0
2017-Dec-11 08:00N 37°08' W 008°32'0 0.0
2017-Dec-11 07:26N 37°08' W 008°32'0 0.0
2017-Dec-11 06:58N 37°08' W 008°32'0 0.0
2017-Dec-11 06:26N 37°08' W 008°32'0 0.0
2017-Dec-11 06:00N 37°08' W 008°32'0 0.0
2017-Dec-11 05:29N 37°08' W 008°32'0 0.0
2017-Dec-11 04:46N 37°08' W 008°32'0 0.0
2017-Dec-11 04:24N 37°08' W 008°32'0 0.0
2017-Dec-11 04:00N 37°08' W 008°32'0 0.0
2017-Dec-11 03:30N 37°08' W 008°32'0 0.0
2017-Dec-11 02:59N 37°08' W 008°32'0 0.0
2017-Dec-11 02:30N 37°08' W 008°32'0 0.0
2017-Dec-11 02:00N 37°08' W 008°32'0 0.0
2017-Dec-11 01:30N 37°08' W 008°32'0 0.0
2017-Dec-11 00:59N 37°08' W 008°32'0 0.0
2017-Dec-11 00:30N 37°08' W 008°32'0 0.0
2017-Dec-11 00:00N 37°08' W 008°32'0 0.0
2017-Dec-10 23:30N 37°08' W 008°32'0 0.0
2017-Dec-10 23:00N 37°08' W 008°32'0 0.0
2017-Dec-10 22:30N 37°08' W 008°32'0 0.0
2017-Dec-10 22:00N 37°08' W 008°32'0 0.0
2017-Dec-10 21:30N 37°08' W 008°32'0 0.0
2017-Dec-10 21:00N 37°08' W 008°32'0 0.0
2017-Dec-10 20:30N 37°08' W 008°32'0 0.0
2017-Dec-10 20:00N 37°08' W 008°32'0 0.0
2017-Dec-10 19:30N 37°08' W 008°32'0 0.0
2017-Dec-10 19:00N 37°08' W 008°32'0 0.0
2017-Dec-10 18:30N 37°08' W 008°32'0 0.0
2017-Dec-10 18:00N 37°08' W 008°32'0 0.0
2017-Dec-10 17:30N 37°08' W 008°32'0 0.0
2017-Dec-10 17:00N 37°08' W 008°32'0 0.0
2017-Dec-10 16:30N 37°08' W 008°32'0 0.0
2017-Dec-10 16:00N 37°08' W 008°32'0 0.1
2017-Dec-10 15:28N 37°08' W 008°32'1 1.5
2017-Dec-10 14:58N 37°07' W 008°31'4 8.1
2017-Dec-10 14:30N 37°03' W 008°31'  
2017-Dec-07 01:43N 38°01' W 009°13'2 8.2
2017-Dec-07 01:27N 37°60' W 009°10'4 8.2
2017-Dec-07 01:00N 37°59' W 009°06'4 8.8
2017-Dec-07 00:30N 37°58' W 009°00'4 8.3
2017-Dec-07 00:00N 37°56' W 008°55'3 5.3
2017-Dec-06 23:30N 37°57' W 008°52'0 0.0
2017-Dec-06 23:00N 37°57' W 008°52'0 0.0
2017-Dec-06 22:30N 37°57' W 008°52'0 0.0
2017-Dec-06 22:00N 37°57' W 008°52'0 0.0
2017-Dec-06 21:30N 37°57' W 008°52'0 0.0
2017-Dec-06 21:00N 37°57' W 008°52'  
Track history (hours):
 
Tides and Currents Weather Stations Pressure Air Temp Water Temp Dewpoint Dewpoint Depression Visibility Wind Speed Wind Dir Waves Ship Positions

Astur

Last reported at 2017-Dec-11 11:30 UTC. Time now 2017-Dec-14 08:24 UTC.
Position N 37°03' W 008°31'.

Length 21 m.

Type: Ship. MMSI: 263275000.

Date/timePositionNaut miles runAvg speedWind from/ knotsBaromVisibWave heightAir tempDewpointWater temp
2017-Dec-11 11:30N 37°03' W 008°31'5 8.5
2017-Dec-11 10:55N 37°08' W 008°32'0 0.8
2017-Dec-11 10:30N 37°08' W 008°32'0 0.0
2017-Dec-11 10:00N 37°08' W 008°32'0 0.0
2017-Dec-11 09:30N 37°08' W 008°32'0 0.0
2017-Dec-11 09:00N 37°08' W 008°32'0 0.0
2017-Dec-11 08:24N 37°08' W 008°32'0 0.0
2017-Dec-11 08:00N 37°08' W 008°32'0 0.0
2017-Dec-11 07:26N 37°08' W 008°32'0 0.0
2017-Dec-11 06:58N 37°08' W 008°32'0 0.0
2017-Dec-11 06:26N 37°08' W 008°32'0 0.0
2017-Dec-11 06:00N 37°08' W 008°32'0 0.0
2017-Dec-11 05:29N 37°08' W 008°32'0 0.0
2017-Dec-11 04:46N 37°08' W 008°32'0 0.0
2017-Dec-11 04:24N 37°08' W 008°32'0 0.0
2017-Dec-11 04:00N 37°08' W 008°32'0 0.0
2017-Dec-11 03:30N 37°08' W 008°32'0 0.0
2017-Dec-11 02:59N 37°08' W 008°32'0 0.0
2017-Dec-11 02:30N 37°08' W 008°32'0 0.0
2017-Dec-11 02:00N 37°08' W 008°32'0 0.0
2017-Dec-11 01:30N 37°08' W 008°32'0 0.0
2017-Dec-11 00:59N 37°08' W 008°32'0 0.0
2017-Dec-11 00:30N 37°08' W 008°32'0 0.0
2017-Dec-11 00:00N 37°08' W 008°32'0 0.0
2017-Dec-10 23:30N 37°08' W 008°32'0 0.0
2017-Dec-10 23:00N 37°08' W 008°32'0 0.0
2017-Dec-10 22:30N 37°08' W 008°32'0 0.0
2017-Dec-10 22:00N 37°08' W 008°32'0 0.0
2017-Dec-10 21:30N 37°08' W 008°32'0 0.0
2017-Dec-10 21:00N 37°08' W 008°32'0 0.0
2017-Dec-10 20:30N 37°08' W 008°32'0 0.0
2017-Dec-10 20:00N 37°08' W 008°32'0 0.0
2017-Dec-10 19:30N 37°08' W 008°32'0 0.0
2017-Dec-10 19:00N 37°08' W 008°32'0 0.0
2017-Dec-10 18:30N 37°08' W 008°32'0 0.0
2017-Dec-10 18:00N 37°08' W 008°32'0 0.0
2017-Dec-10 17:30N 37°08' W 008°32'0 0.0
2017-Dec-10 17:00N 37°08' W 008°32'0 0.0
2017-Dec-10 16:30N 37°08' W 008°32'0 0.0
2017-Dec-10 16:00N 37°08' W 008°32'0 0.1
2017-Dec-10 15:28N 37°08' W 008°32'1 1.5
2017-Dec-10 14:58N 37°07' W 008°31'4 8.1
2017-Dec-10 14:30N 37°03' W 008°31'  
2017-Dec-07 01:43N 38°01' W 009°13'2 8.2
2017-Dec-07 01:27N 37°60' W 009°10'4 8.2
2017-Dec-07 01:00N 37°59' W 009°06'4 8.8
2017-Dec-07 00:30N 37°58' W 009°00'4 8.3
2017-Dec-07 00:00N 37°56' W 008°55'3 5.3
2017-Dec-06 23:30N 37°57' W 008°52'0 0.0
2017-Dec-06 23:00N 37°57' W 008°52'0 0.0
2017-Dec-06 22:30N 37°57' W 008°52'0 0.0
2017-Dec-06 22:00N 37°57' W 008°52'0 0.0
2017-Dec-06 21:30N 37°57' W 008°52'0 0.0
2017-Dec-06 21:00N 37°57' W 008°52'  

Dump ship's entire track history